createdAt,value
2023-04-06T00:00:30.030Z,8.00
2023-04-06T00:03:17.472Z,8.23
2023-04-06T00:05:45.992Z,8.20
2023-04-06T00:08:14.570Z,8.95
2023-04-06T00:10:42.890Z,9.07
2023-04-06T00:13:11.538Z,8.75
2023-04-06T00:15:39.705Z,9.30
2023-04-06T00:18:08.194Z,9.27
2023-04-06T00:20:37.855Z,8.95
2023-04-06T00:23:06.455Z,8.38
2023-04-06T00:25:34.667Z,8.77
2023-04-06T00:28:04.433Z,9.10
2023-04-06T00:30:32.667Z,8.13
2023-04-06T00:33:01.740Z,7.93
2023-04-06T00:35:30.020Z,9.45
2023-04-06T00:37:59.856Z,10.63
2023-04-06T00:40:29.397Z,10.77
2023-04-06T00:42:57.878Z,11.63
2023-04-06T00:45:26.104Z,10.88
2023-04-06T00:47:54.603Z,10.10
2023-04-06T00:50:22.933Z,10.25
2023-04-06T00:52:51.509Z,10.35
2023-04-06T00:55:21.258Z,10.82
2023-04-06T00:57:50.898Z,10.23
2023-04-06T01:00:19.915Z,9.20
2023-04-06T01:02:49.153Z,12.18
2023-04-06T01:05:17.657Z,12.10
2023-04-06T01:07:46.084Z,11.13
2023-04-06T01:10:26.571Z,12.32
2023-04-06T01:12:55.056Z,12.02
2023-04-06T01:15:23.335Z,11.90
2023-04-06T01:17:51.808Z,10.73
2023-04-06T01:20:20.414Z,10.85
2023-04-06T01:22:50.291Z,10.77
2023-04-06T01:25:18.707Z,10.20
2023-04-06T01:27:47.260Z,11.00
2023-04-06T01:30:15.655Z,10.70
2023-04-06T01:32:44.252Z,9.82
2023-04-06T01:35:12.598Z,10.38
2023-04-06T01:37:42.356Z,9.07
2023-04-06T01:40:13.129Z,10.00
2023-04-06T01:42:41.567Z,9.88
2023-04-06T01:45:10.553Z,10.18
2023-04-06T01:47:39.020Z,11.13
2023-04-06T01:50:08.308Z,9.90
2023-04-06T01:52:36.880Z,9.27
2023-04-06T01:55:05.505Z,10.38
2023-04-06T01:57:35.950Z,10.65
2023-04-06T02:00:04.665Z,10.52
2023-04-06T02:02:33.247Z,12.55
2023-04-06T02:05:01.629Z,13.48
2023-04-06T02:07:30.355Z,17.75
2023-04-06T02:09:58.749Z,14.52
2023-04-06T02:12:27.361Z,12.82
2023-04-06T02:14:57.025Z,12.07
2023-04-06T02:17:25.519Z,12.60
2023-04-06T02:19:53.739Z,11.70
2023-04-06T02:22:22.278Z,11.88
2023-04-06T02:24:50.788Z,12.05
2023-04-06T02:27:19.255Z,12.13
2023-04-06T02:29:47.516Z,11.52
2023-04-06T02:32:17.341Z,12.85
2023-04-06T02:34:45.618Z,11.80
2023-04-06T02:37:14.092Z,12.27
2023-04-06T02:39:42.414Z,12.65
2023-04-06T02:42:11.095Z,13.30
2023-04-06T02:44:39.613Z,12.98
2023-04-06T02:47:08.117Z,14.35
2023-04-06T02:49:37.714Z,13.38
2023-04-06T02:52:06.193Z,14.02
2023-04-06T02:54:34.517Z,12.68
2023-04-06T02:57:03.075Z,14.50
2023-04-06T02:59:31.560Z,13.90
2023-04-06T03:02:00.746Z,13.50
2023-04-06T03:04:28.931Z,13.68
2023-04-06T03:07:01.252Z,13.77
2023-04-06T03:11:58.494Z,15.60
2023-04-06T03:14:26.666Z,14.82
2023-04-06T03:16:55.357Z,16.83
2023-04-06T03:19:23.603Z,17.27
2023-04-06T03:21:52.178Z,16.88
2023-04-06T03:24:21.730Z,17.08
2023-04-06T03:26:50.282Z,17.55
2023-04-06T03:29:18.614Z,17.35
2023-04-06T03:31:47.252Z,19.67
2023-04-06T03:34:15.587Z,17.27
2023-04-06T03:36:44.200Z,17.85
2023-04-06T03:39:12.413Z,17.45
2023-04-06T03:41:42.392Z,16.67
2023-04-06T03:44:10.703Z,16.15
2023-04-06T03:46:39.239Z,17.80
2023-04-06T03:49:07.758Z,16.63
2023-04-06T03:51:36.617Z,16.20
2023-04-06T03:54:05.041Z,16.27
2023-04-06T03:56:33.544Z,14.80
2023-04-06T03:59:03.390Z,15.57
2023-04-06T04:01:31.996Z,16.45
2023-04-06T04:04:00.530Z,16.20
2023-04-06T04:06:29.209Z,15.25
2023-04-06T04:08:57.420Z,15.68
2023-04-06T04:11:26.092Z,16.05
2023-04-06T04:13:54.331Z,16.83
2023-04-06T04:16:24.313Z,17.00
2023-04-06T04:18:52.553Z,18.10
2023-04-06T04:21:21.060Z,18.63
2023-04-06T04:23:49.330Z,18.00
2023-04-06T04:26:17.777Z,18.65
2023-04-06T04:28:45.958Z,19.05
2023-04-06T04:31:14.507Z,19.40
2023-04-06T04:33:44.059Z,18.92
2023-04-06T04:36:12.618Z,19.08
2023-04-06T04:38:40.795Z,19.13
2023-04-06T04:41:09.314Z,19.20
2023-04-06T04:43:37.470Z,17.77
2023-04-06T04:46:06.610Z,19.45
2023-04-06T04:48:35.018Z,19.80
2023-04-06T04:51:06.141Z,17.70
2023-04-06T04:53:34.631Z,18.33
2023-04-06T04:56:03.154Z,18.90
2023-04-06T04:58:31.352Z,18.10
2023-04-06T05:00:59.868Z,19.48
2023-04-06T05:03:29.094Z,19.33
2023-04-06T05:05:57.650Z,18.90
2023-04-06T05:08:27.266Z,19.00
2023-04-06T05:10:55.835Z,19.30
2023-04-06T05:13:24.017Z,19.55
2023-04-06T05:15:52.516Z,19.08
2023-04-06T05:18:20.892Z,19.23
2023-04-06T05:20:49.497Z,18.88
2023-04-06T05:23:17.723Z,19.17
2023-04-06T05:25:47.600Z,19.08
2023-04-06T05:28:16.888Z,18.80
2023-04-06T05:30:45.995Z,18.65
2023-04-06T05:33:14.357Z,20.23
2023-04-06T05:35:43.059Z,20.55
2023-04-06T05:38:11.786Z,18.10
2023-04-06T05:40:41.965Z,20.02
2023-04-06T05:43:11.787Z,19.52
2023-04-06T05:45:40.260Z,19.38
2023-04-06T05:48:08.628Z,22.50
2023-04-06T05:50:37.256Z,24.23
2023-04-06T05:53:05.745Z,18.63
2023-04-06T05:55:34.166Z,18.08
2023-04-06T05:58:02.348Z,15.43
2023-04-06T06:00:32.574Z,17.05
2023-04-06T06:03:01.093Z,13.43
2023-04-06T06:05:30.698Z,14.35
2023-04-06T06:07:59.125Z,14.32
2023-04-06T06:10:27.558Z,13.95
2023-04-06T06:12:55.796Z,15.57
2023-04-06T06:15:24.332Z,16.10
2023-04-06T06:17:53.931Z,14.70
2023-04-06T06:20:22.478Z,15.00
2023-04-06T06:22:51.075Z,15.18
2023-04-06T06:25:19.951Z,16.88
2023-04-06T06:27:48.314Z,15.60
2023-04-06T06:30:17.474Z,16.92
2023-04-06T06:32:45.830Z,17.33
2023-04-06T06:35:15.954Z,17.58
2023-04-06T06:37:44.515Z,17.02
2023-04-06T06:40:14.127Z,19.17
2023-04-06T06:42:42.422Z,17.02
2023-04-06T06:45:11.947Z,18.90
2023-04-06T06:47:40.427Z,18.48
2023-04-06T06:50:09.668Z,16.83
2023-04-06T06:52:39.221Z,16.45
2023-04-06T06:55:08.955Z,18.13
2023-04-06T06:57:37.174Z,20.13
2023-04-06T07:00:07.095Z,19.08
2023-04-06T07:02:37.527Z,19.10
2023-04-06T07:05:23.918Z,17.27
2023-04-06T07:07:57.572Z,17.95
2023-04-06T07:10:26.925Z,18.38
2023-04-06T07:12:55.169Z,17.35
2023-04-06T07:15:23.945Z,18.75
2023-04-06T07:17:53.379Z,19.35
2023-04-06T07:20:21.890Z,18.20
2023-04-06T07:22:50.564Z,17.98
2023-04-06T07:25:20.388Z,17.15
2023-04-06T07:27:49.039Z,10.25
2023-04-06T07:30:19.212Z,9.70
2023-04-06T07:32:47.416Z,10.35
2023-04-06T07:35:16.312Z,9.20
2023-04-06T07:37:44.874Z,10.13
2023-04-06T07:40:13.557Z,10.48
2023-04-06T07:42:43.640Z,10.70
2023-04-06T07:45:12.740Z,9.98
2023-04-06T07:47:41.053Z,10.15
2023-04-06T07:50:10.490Z,10.80
2023-04-06T07:52:38.884Z,7.50
2023-04-06T07:55:08.073Z,7.03
2023-04-06T07:57:36.406Z,7.22
2023-04-06T08:00:07.726Z,7.25
2023-04-06T08:02:36.046Z,7.05
2023-04-06T08:05:05.076Z,7.30
2023-04-06T08:07:33.640Z,7.32
2023-04-06T08:10:02.116Z,8.45
2023-04-06T08:12:30.891Z,6.47
2023-04-06T08:14:59.514Z,7.80
2023-04-06T08:17:31.359Z,8.18
2023-04-06T08:20:00.506Z,7.22
2023-04-06T08:22:28.850Z,7.10
2023-04-06T08:24:57.318Z,8.02
2023-04-06T08:27:25.789Z,7.18
2023-04-06T08:29:54.262Z,10.20
2023-04-06T08:32:22.467Z,8.88
2023-04-06T08:34:55.791Z,8.88
2023-04-06T08:37:24.009Z,8.23
2023-04-06T08:39:52.795Z,8.75
2023-04-06T08:42:22.792Z,13.70
2023-04-06T08:44:53.297Z,10.02
2023-04-06T08:47:24.708Z,7.68
2023-04-06T08:49:56.780Z,7.38
2023-04-06T08:52:25.307Z,8.25
2023-04-06T08:54:53.753Z,8.05
2023-04-06T08:57:22.540Z,6.63
2023-04-06T08:59:51.997Z,7.65
2023-04-06T09:02:21.278Z,8.80
2023-04-06T09:04:51.322Z,8.38
2023-04-06T09:07:21.124Z,7.95
2023-04-06T09:09:49.788Z,8.77
2023-04-06T09:12:28.609Z,6.95
2023-04-06T09:14:58.098Z,8.45
2023-04-06T09:17:27.453Z,8.30
2023-04-06T09:19:56.756Z,8.38
2023-04-06T09:22:28.032Z,7.78
2023-04-06T09:24:56.702Z,7.50
2023-04-06T09:27:33.184Z,8.00
2023-04-06T09:30:07.236Z,9.23
2023-04-06T09:32:47.455Z,9.10
2023-04-06T09:35:16.664Z,9.52
2023-04-06T09:37:46.744Z,8.00
2023-04-06T09:40:18.295Z,8.35
2023-04-06T09:42:48.405Z,7.93
2023-04-06T09:45:17.058Z,8.15
2023-04-06T09:47:47.710Z,7.72
2023-04-06T09:50:17.302Z,7.90
2023-04-06T09:52:51.158Z,7.45
2023-04-06T09:55:26.118Z,8.13
2023-04-06T09:58:00.227Z,7.93
2023-04-06T10:00:29.723Z,8.07
2023-04-06T10:03:01.814Z,6.80
2023-04-06T10:05:36.035Z,7.75
2023-04-06T10:08:09.291Z,8.77
2023-04-06T10:10:38.524Z,7.95
2023-04-06T10:13:07.026Z,8.90
2023-04-06T10:15:35.975Z,7.50
2023-04-06T10:18:04.927Z,8.40
2023-04-06T10:20:38.570Z,8.63
2023-04-06T10:23:15.142Z,8.00
2023-04-06T10:25:54.599Z,8.93
2023-04-06T10:28:22.987Z,8.25
2023-04-06T10:30:52.023Z,7.60
2023-04-06T10:33:21.481Z,7.63
2023-04-06T10:35:50.324Z,7.57
2023-04-06T10:38:22.861Z,7.90
2023-04-06T10:40:51.696Z,8.50
2023-04-06T10:43:22.033Z,8.68
2023-04-06T10:45:58.256Z,7.75
2023-04-06T10:48:27.826Z,8.35
2023-04-06T10:50:57.505Z,7.40
2023-04-06T10:53:28.258Z,6.72
2023-04-06T10:55:58.102Z,6.43
2023-04-06T10:58:27.680Z,7.47
2023-04-06T11:00:57.404Z,7.47
2023-04-06T11:03:25.869Z,6.70
2023-04-06T11:05:54.342Z,7.95
2023-04-06T11:08:28.254Z,6.60
2023-04-06T11:11:07.837Z,6.88
2023-04-06T11:13:40.706Z,6.78
2023-04-06T11:16:09.560Z,7.53
2023-04-06T11:18:38.176Z,6.45
2023-04-06T11:21:07.755Z,7.50
2023-04-06T11:23:37.427Z,8.20
2023-04-06T11:26:06.093Z,8.00
2023-04-06T11:28:34.334Z,7.00
2023-04-06T11:31:03.009Z,7.90
2023-04-06T11:33:31.466Z,7.53
2023-04-06T11:36:00.197Z,8.73
2023-04-06T11:38:28.821Z,9.32
2023-04-06T11:40:58.718Z,7.97
2023-04-06T11:43:30.400Z,8.18
2023-04-06T11:46:03.803Z,8.40
2023-04-06T11:48:32.590Z,8.77
2023-04-06T11:51:02.366Z,8.23
2023-04-06T11:53:30.970Z,8.63
2023-04-06T11:56:00.934Z,9.48
2023-04-06T11:58:29.280Z,9.68
2023-04-06T12:01:05.763Z,8.63
2023-04-06T12:03:34.096Z,9.55
2023-04-06T12:06:02.703Z,11.30
2023-04-06T12:08:31.283Z,11.80
2023-04-06T12:11:01.432Z,13.45
2023-04-06T12:13:29.589Z,13.75
2023-04-06T12:15:58.162Z,14.55
2023-04-06T12:18:26.533Z,13.38
2023-04-06T12:20:54.978Z,16.23
2023-04-06T12:23:23.535Z,13.32
2023-04-06T12:25:52.547Z,16.50
2023-04-06T12:28:24.274Z,16.65
2023-04-06T12:30:53.392Z,17.67
2023-04-06T12:33:21.665Z,17.05
2023-04-06T12:35:50.566Z,18.13
2023-04-06T12:38:18.931Z,17.00
2023-04-06T12:40:47.426Z,18.27
2023-04-06T12:43:15.841Z,16.45
2023-04-06T12:45:47.044Z,18.67
2023-04-06T12:48:15.245Z,18.45
2023-04-06T12:50:43.684Z,16.98
2023-04-06T12:53:12.163Z,17.20
2023-04-06T12:55:40.690Z,16.85
2023-04-06T12:58:08.892Z,17.80
2023-04-06T13:00:37.897Z,17.55
2023-04-06T13:03:07.871Z,17.58
2023-04-06T13:05:36.306Z,21.52
2023-04-06T13:08:04.573Z,18.58
2023-04-06T13:10:33.073Z,18.60
2023-04-06T13:13:01.276Z,21.48
2023-04-06T13:15:29.716Z,21.08
2023-04-06T13:17:58.137Z,20.50
2023-04-06T13:20:28.749Z,19.88
2023-04-06T13:22:56.926Z,20.08
2023-04-06T13:25:25.394Z,19.73
2023-04-06T13:27:54.011Z,19.95
2023-04-06T13:30:23.552Z,19.63
2023-04-06T13:32:52.070Z,22.90
2023-04-06T13:35:20.776Z,22.92
2023-04-06T13:37:52.493Z,23.83
2023-04-06T13:40:21.814Z,26.38
2023-04-06T13:42:50.051Z,27.33
2023-04-06T13:45:18.941Z,25.55
2023-04-06T13:47:47.153Z,27.17
2023-04-06T13:50:15.756Z,28.65
2023-04-06T13:52:44.002Z,25.13
2023-04-06T13:55:13.739Z,31.52
2023-04-06T13:57:42.073Z,30.77
2023-04-06T14:00:12.587Z,27.88
2023-04-06T14:02:40.851Z,26.52
2023-04-06T14:05:10.420Z,28.95
2023-04-06T14:07:38.613Z,29.38
2023-04-06T14:10:14.708Z,24.45
2023-04-06T14:12:45.857Z,31.23
2023-04-06T14:15:14.725Z,29.10
2023-04-06T14:17:42.999Z,28.00
2023-04-06T14:20:15.015Z,29.55
2023-04-06T14:22:44.004Z,25.73
2023-04-06T14:25:13.585Z,30.13
2023-04-06T14:27:41.883Z,33.20
2023-04-06T14:30:13.267Z,34.33
2023-04-06T14:32:42.952Z,32.97
2023-04-06T14:35:12.206Z,33.60
2023-04-06T14:37:40.443Z,36.10
2023-04-06T14:40:10.239Z,36.17
2023-04-06T14:42:38.638Z,30.13
2023-04-06T14:45:08.276Z,33.63
2023-04-06T14:47:37.988Z,31.67
2023-04-06T14:50:07.768Z,34.28
2023-04-06T14:52:36.383Z,37.97
2023-04-06T14:55:05.353Z,35.65
2023-04-06T14:57:34.760Z,35.20
2023-04-06T15:00:04.721Z,36.33
2023-04-06T15:02:34.975Z,48.50
2023-04-06T15:05:06.253Z,43.05
2023-04-06T15:07:34.608Z,36.28
2023-04-06T15:10:03.302Z,33.15
2023-04-06T15:12:31.778Z,35.50
2023-04-06T15:15:01.898Z,34.22
2023-04-06T15:17:30.421Z,32.55
2023-04-06T15:19:58.980Z,33.95
2023-04-06T15:22:28.634Z,33.22
2023-04-06T15:24:57.021Z,35.55
2023-04-06T15:27:25.767Z,32.67
2023-04-06T15:29:54.629Z,34.47
2023-04-06T15:32:22.876Z,29.90
2023-04-06T15:34:51.669Z,32.33
2023-04-06T15:37:20.191Z,36.05
2023-04-06T15:39:49.984Z,36.88
2023-04-06T15:42:18.534Z,35.28
2023-04-06T15:44:47.314Z,36.78
2023-04-06T15:47:15.453Z,37.90
2023-04-06T15:49:44.179Z,37.58
2023-04-06T15:52:12.447Z,43.95
2023-04-06T15:54:41.123Z,45.60
2023-04-06T15:57:10.781Z,58.33
2023-04-06T15:59:39.335Z,36.90
2023-04-06T16:02:07.606Z,44.15
2023-04-06T16:04:36.482Z,44.08
2023-04-06T16:07:04.923Z,43.08
2023-04-06T16:09:33.373Z,44.08
2023-04-06T16:12:02.192Z,45.17
2023-04-06T16:14:32.103Z,49.05
2023-04-06T16:17:00.351Z,45.72
2023-04-06T16:19:28.776Z,44.95
2023-04-06T16:21:57.706Z,43.25
2023-04-06T16:24:26.183Z,46.83
2023-04-06T16:26:54.497Z,45.75
2023-04-06T16:29:23.088Z,54.20
2023-04-06T16:31:52.773Z,49.55
2023-04-06T16:34:21.403Z,51.25
2023-04-06T16:36:49.709Z,50.78
2023-04-06T16:39:18.181Z,49.28
2023-04-06T16:41:46.639Z,51.05
2023-04-06T16:44:16.014Z,47.85
2023-04-06T16:46:45.173Z,45.75
2023-04-06T16:49:17.426Z,50.65
2023-04-06T16:51:45.683Z,55.92
2023-04-06T16:54:14.217Z,58.65
2023-04-06T16:56:42.424Z,57.25
2023-04-06T16:59:11.099Z,53.45
2023-04-06T17:01:39.614Z,56.25
2023-04-06T17:04:08.728Z,59.17
2023-04-06T17:06:38.507Z,56.83
2023-04-06T17:09:07.249Z,59.88
2023-04-06T17:11:45.938Z,58.40
2023-04-06T17:14:15.930Z,54.63
2023-04-06T17:16:44.238Z,56.35
2023-04-06T17:19:12.670Z,56.72
2023-04-06T17:21:42.738Z,47.40
2023-04-06T17:24:12.120Z,54.88
2023-04-06T17:26:40.439Z,54.63
2023-04-06T17:29:09.043Z,51.28
2023-04-06T17:31:37.334Z,53.90
2023-04-06T17:34:06.170Z,52.95
2023-04-06T17:36:34.610Z,52.35
2023-04-06T17:39:04.471Z,54.92
2023-04-06T17:41:34.318Z,58.28
2023-04-06T17:44:03.028Z,54.92
2023-04-06T17:46:31.338Z,54.25
2023-04-06T17:48:59.759Z,55.42
2023-04-06T17:51:28.346Z,56.35
2023-04-06T17:53:56.895Z,55.03
2023-04-06T17:56:26.418Z,54.00
2023-04-06T17:58:57.846Z,55.90
2023-04-06T18:01:26.310Z,53.85
2023-04-06T18:03:55.047Z,57.28
2023-04-06T18:06:25.663Z,52.35
2023-04-06T18:08:54.472Z,58.00
2023-04-06T18:11:23.298Z,54.80
2023-04-06T18:13:53.559Z,60.13
2023-04-06T18:16:22.454Z,63.40
2023-04-06T18:18:50.903Z,59.53
2023-04-06T18:21:19.400Z,57.75
2023-04-06T18:23:49.241Z,55.83
2023-04-06T18:26:18.866Z,59.58
2023-04-06T18:28:47.863Z,55.17
2023-04-06T18:31:17.579Z,75.15
2023-04-06T18:33:46.838Z,57.45
2023-04-06T18:36:15.797Z,59.72
2023-04-06T18:38:45.539Z,57.28
2023-04-06T18:41:13.832Z,57.40
2023-04-06T18:43:42.465Z,56.55
2023-04-06T18:46:14.469Z,52.88
2023-04-06T18:48:44.885Z,53.75
2023-04-06T18:51:12.979Z,55.38
2023-04-06T18:53:41.724Z,55.85
2023-04-06T18:56:16.622Z,56.70
2023-04-06T18:58:45.879Z,54.90
2023-04-06T19:01:22.093Z,59.42
2023-04-06T19:03:53.187Z,55.95
2023-04-06T19:06:22.345Z,56.10
2023-04-06T19:08:51.217Z,45.03
2023-04-06T19:11:19.768Z,54.95
2023-04-06T19:13:50.570Z,53.97
2023-04-06T19:16:19.251Z,59.53
2023-04-06T19:18:48.059Z,54.83
2023-04-06T19:21:17.971Z,53.65
2023-04-06T19:23:47.160Z,52.28
2023-04-06T19:26:16.314Z,55.65
2023-04-06T19:28:45.514Z,53.00
2023-04-06T19:31:15.704Z,53.70
2023-04-06T19:33:45.318Z,51.55
2023-04-06T19:36:13.677Z,52.15
2023-04-06T19:38:43.567Z,48.67
2023-04-06T19:41:11.790Z,50.83
2023-04-06T19:43:40.360Z,54.22
2023-04-06T19:46:09.286Z,51.60
2023-04-06T19:48:37.845Z,48.92
2023-04-06T19:51:06.868Z,47.15
2023-04-06T19:53:35.778Z,48.67
2023-04-06T19:56:05.307Z,45.50
2023-04-06T19:58:33.871Z,46.28
2023-04-06T20:01:04.248Z,46.08
2023-04-06T20:03:32.935Z,47.38
2023-04-06T20:06:01.413Z,49.25
2023-04-06T20:08:30.150Z,49.22
2023-04-06T20:11:02.767Z,47.58
2023-04-06T20:13:32.669Z,49.88
2023-04-06T20:16:01.136Z,52.60
2023-04-06T20:18:29.515Z,51.25
2023-04-06T20:20:57.930Z,53.22
2023-04-06T20:23:26.309Z,55.00
2023-04-06T20:25:54.418Z,54.05
2023-04-06T20:28:23.872Z,57.88
2023-04-06T20:30:54.494Z,57.15
2023-04-06T20:33:24.238Z,58.03
2023-04-06T20:35:58.312Z,58.30
2023-04-06T20:38:33.285Z,63.45
2023-04-06T20:41:02.552Z,59.10
2023-04-06T20:44:15.277Z,67.75
2023-04-06T20:46:21.373Z,68.60
2023-04-06T20:48:49.982Z,72.43
2023-04-06T20:51:23.138Z,72.72
2023-04-06T20:53:53.017Z,73.07
2023-04-06T20:56:21.881Z,68.82
2023-04-06T20:58:50.553Z,58.63
2023-04-06T21:01:19.360Z,69.78
2023-04-06T21:03:49.231Z,66.75
2023-04-06T21:06:17.418Z,70.80
2023-04-06T21:08:45.936Z,72.78
2023-04-06T21:11:14.262Z,72.82
2023-04-06T21:13:42.689Z,70.15
2023-04-06T21:16:11.391Z,67.13
2023-04-06T21:18:40.231Z,59.45
2023-04-06T21:21:09.787Z,70.18
2023-04-06T21:23:38.405Z,69.50
2023-04-06T21:26:06.666Z,70.88
2023-04-06T21:28:35.100Z,70.07
2023-04-06T21:31:07.964Z,71.35
2023-04-06T21:33:36.456Z,65.22
2023-04-06T21:36:09.518Z,65.30
2023-04-06T21:38:38.867Z,60.00
2023-04-06T21:41:07.507Z,61.50
2023-04-06T21:43:36.431Z,62.72
2023-04-06T21:46:04.869Z,54.97
2023-04-06T21:48:33.578Z,60.50
2023-04-06T21:51:01.703Z,60.28
2023-04-06T21:53:31.421Z,61.60
2023-04-06T21:56:00.896Z,61.90
2023-04-06T21:58:29.331Z,59.40
2023-04-06T22:00:58.480Z,60.60
2023-04-06T22:03:27.012Z,64.18
2023-04-06T22:05:56.219Z,59.92
2023-04-06T22:08:33.382Z,56.75
2023-04-06T22:11:08.708Z,58.15
2023-04-06T22:13:37.900Z,58.65
2023-04-06T22:16:06.970Z,56.15
2023-04-06T22:18:38.093Z,54.10
2023-04-06T22:21:07.396Z,54.92
2023-04-06T22:23:41.864Z,55.95
2023-04-06T22:26:11.820Z,55.65
2023-04-06T22:28:40.922Z,58.92
2023-04-06T22:31:09.117Z,56.70
2023-04-06T22:33:37.501Z,53.00
2023-04-06T22:36:06.250Z,53.85
2023-04-06T22:38:34.686Z,44.42
2023-04-06T22:41:02.789Z,53.72
2023-04-06T22:43:32.538Z,56.08
2023-04-06T22:46:00.648Z,54.33
2023-04-06T22:48:29.047Z,55.45
2023-04-06T22:50:57.309Z,55.45
2023-04-06T22:53:25.680Z,56.83
2023-04-06T22:55:53.875Z,55.85
2023-04-06T22:58:22.281Z,55.80
2023-04-06T23:00:51.936Z,56.35
2023-04-06T23:03:20.597Z,43.35
2023-04-06T23:05:48.853Z,55.63
2023-04-06T23:08:17.362Z,57.47
2023-04-06T23:10:45.485Z,50.47
2023-04-06T23:13:13.839Z,59.90
2023-04-06T23:15:41.987Z,57.38
2023-04-06T23:18:11.846Z,53.65
2023-04-06T23:20:40.981Z,57.30
2023-04-06T23:23:09.389Z,59.55
2023-04-06T23:25:37.470Z,60.65
2023-04-06T23:28:06.242Z,54.63
2023-04-06T23:30:34.397Z,57.92
2023-04-06T23:33:02.858Z,61.78
2023-04-06T23:35:32.388Z,59.33
2023-04-06T23:38:00.778Z,58.75
2023-04-06T23:40:28.873Z,50.95
2023-04-06T23:42:57.308Z,58.88
2023-04-06T23:45:25.429Z,59.88
2023-04-06T23:47:53.829Z,62.70
2023-04-06T23:50:22.173Z,53.75
2023-04-06T23:52:52.103Z,61.55
2023-04-06T23:55:20.301Z,57.92
2023-04-06T23:57:48.732Z,60.53
